Atkinson, New Hampshire
Current Conditions -  °F | °C
As of 6:54 AM on Friday 31 Oct 2014 (Local Time) from KLWM Reporting Station
Overcast Overcast  
Wind Chill: 40°   Ceiling: 6000
Heat Index: 40°   Visibility: 10mi
Dew Point: 34°   Wind: 0mph
Humidity: 79%   Direction: NA
Pressure: 30.05"   Gusts: NA
Location:  42.84°N, 71.15°W
Report Text: KLWM 311054Z 00000KT 10SM OVC060 04/01 A3005 RMK AO2 SLP177 T00440011
Loading
Personal Weather Stations






























Interactive Weather Map
Tropical Storm Tracking
New forecast layout! Learn more

10-Day Weather Forecast

Advertisements
Track Severe Weather on mobile